sensor_id;sensor_type;location;lat;lon;timestamp;temperature;humidity
67188;DHT22;54117;53.532;49.426;2022-09-20T00:01:14;18.70;78.90
67188;DHT22;54117;53.532;49.426;2022-09-20T00:03:43;18.70;78.60
67188;DHT22;54117;53.532;49.426;2022-09-20T00:06:22;18.70;78.40
67188;DHT22;54117;53.532;49.426;2022-09-20T00:08:48;18.60;78.10
67188;DHT22;54117;53.532;49.426;2022-09-20T00:11:26;18.60;77.80
67188;DHT22;54117;53.532;49.426;2022-09-20T00:13:55;18.60;77.70
67188;DHT22;54117;53.532;49.426;2022-09-20T00:16:25;18.60;77.90
67188;DHT22;54117;53.532;49.426;2022-09-20T00:18:53;18.50;77.90
67188;DHT22;54117;53.532;49.426;2022-09-20T00:21:22;18.50;78.30
67188;DHT22;54117;53.532;49.426;2022-09-20T00:23:50;18.40;78.50
67188;DHT22;54117;53.532;49.426;2022-09-20T00:26:17;18.40;78.60
67188;DHT22;54117;53.532;49.426;2022-09-20T00:28:44;18.40;78.80
67188;DHT22;54117;53.532;49.426;2022-09-20T00:31:12;18.40;78.70
67188;DHT22;54117;53.532;49.426;2022-09-20T00:33:38;18.30;78.50
67188;DHT22;54117;53.532;49.426;2022-09-20T00:36:24;18.20;78.40
67188;DHT22;54117;53.532;49.426;2022-09-20T00:38:59;18.10;78.90
67188;DHT22;54117;53.532;49.426;2022-09-20T00:41:26;18.00;79.20
67188;DHT22;54117;53.532;49.426;2022-09-20T00:43:53;18.00;79.40
67188;DHT22;54117;53.532;49.426;2022-09-20T00:46:49;18.00;79.90
67188;DHT22;54117;53.532;49.426;2022-09-20T00:49:22;17.80;79.70
67188;DHT22;54117;53.532;49.426;2022-09-20T00:51:56;17.80;80.00
67188;DHT22;54117;53.532;49.426;2022-09-20T00:54:24;17.80;80.00
67188;DHT22;54117;53.532;49.426;2022-09-20T00:56:51;17.80;80.00
67188;DHT22;54117;53.532;49.426;2022-09-20T00:59:33;17.80;79.90
67188;DHT22;54117;53.532;49.426;2022-09-20T01:02:20;17.70;79.70
67188;DHT22;54117;53.532;49.426;2022-09-20T01:04:47;17.60;79.70
67188;DHT22;54117;53.532;49.426;2022-09-20T01:07:16;17.60;79.70
67188;DHT22;54117;53.532;49.426;2022-09-20T01:09:47;17.50;79.80
67188;DHT22;54117;53.532;49.426;2022-09-20T01:12:18;17.40;79.60
67188;DHT22;54117;53.532;49.426;2022-09-20T01:14:46;17.40;79.70
67188;DHT22;54117;53.532;49.426;2022-09-20T01:17:14;17.40;80.20
67188;DHT22;54117;53.532;49.426;2022-09-20T01:27:46;17.10;81.40
67188;DHT22;54117;53.532;49.426;2022-09-20T01:30:21;17.00;82.00
67188;DHT22;54117;53.532;49.426;2022-09-20T01:35:23;17.00;82.40
67188;DHT22;54117;53.532;49.426;2022-09-20T01:38:14;17.00;82.50
67188;DHT22;54117;53.532;49.426;2022-09-20T01:41:03;17.00;82.30
67188;DHT22;54117;53.532;49.426;2022-09-20T01:43:51;17.10;82.30
67188;DHT22;54117;53.532;49.426;2022-09-20T01:46:31;17.10;82.00
67188;DHT22;54117;53.532;49.426;2022-09-20T01:55:10;17.10;82.40
67188;DHT22;54117;53.532;49.426;2022-09-20T02:00:57;17.20;83.40
67188;DHT22;54117;53.532;49.426;2022-09-20T02:09:13;17.20;84.00
67188;DHT22;54117;53.532;49.426;2022-09-20T02:12:16;17.10;84.10
67188;DHT22;54117;53.532;49.426;2022-09-20T02:17:47;17.10;84.50
67188;DHT22;54117;53.532;49.426;2022-09-20T02:23:04;17.10;85.10
67188;DHT22;54117;53.532;49.426;2022-09-20T02:28:22;17.10;85.30
67188;DHT22;54117;53.532;49.426;2022-09-20T02:39:59;17.10;86.00
67188;DHT22;54117;53.532;49.426;2022-09-20T02:43:01;17.10;86.40
67188;DHT22;54117;53.532;49.426;2022-09-20T02:45:35;17.00;86.40
67188;DHT22;54117;53.532;49.426;2022-09-20T02:48:05;17.00;86.90
67188;DHT22;54117;53.532;49.426;2022-09-20T02:50:39;16.90;87.10
67188;DHT22;54117;53.532;49.426;2022-09-20T02:53:29;16.90;87.60
67188;DHT22;54117;53.532;49.426;2022-09-20T02:59:18;16.80;88.20
67188;DHT22;54117;53.532;49.426;2022-09-20T03:02:05;16.80;88.70
67188;DHT22;54117;53.532;49.426;2022-09-20T03:07:53;16.80;89.50
67188;DHT22;54117;53.532;49.426;2022-09-20T03:24:27;17.30;89.10
67188;DHT22;54117;53.532;49.426;2022-09-20T03:35:50;17.90;87.40
67188;DHT22;54117;53.532;49.426;2022-09-20T03:46:24;18.40;84.40
67188;DHT22;54117;53.532;49.426;2022-09-20T04:05:56;19.00;81.00
67188;DHT22;54117;53.532;49.426;2022-09-20T04:20:25;19.30;79.90
67188;DHT22;54117;53.532;49.426;2022-09-20T04:22:41;19.60;78.50
67188;DHT22;54117;53.532;49.426;2022-09-20T04:25:15;20.00;78.90
67188;DHT22;54117;53.532;49.426;2022-09-20T04:27:46;20.40;75.70
67188;DHT22;54117;53.532;49.426;2022-09-20T04:30:18;20.70;73.50
67188;DHT22;54117;53.532;49.426;2022-09-20T04:39:02;21.00;69.50
67188;DHT22;54117;53.532;49.426;2022-09-20T04:50:54;20.60;69.30
67188;DHT22;54117;53.532;49.426;2022-09-20T04:58:47;20.50;67.30
67188;DHT22;54117;53.532;49.426;2022-09-20T05:24:01;20.10;64.90
67188;DHT22;54117;53.532;49.426;2022-09-20T05:30:04;20.00;65.20
67188;DHT22;54117;53.532;49.426;2022-09-20T05:38:50;20.00;65.00
67188;DHT22;54117;53.532;49.426;2022-09-20T05:46:44;19.90;64.00
67188;DHT22;54117;53.532;49.426;2022-09-20T05:55:05;19.80;63.40
67188;DHT22;54117;53.532;49.426;2022-09-20T05:57:41;19.80;64.20
67188;DHT22;54117;53.532;49.426;2022-09-20T06:00:15;19.90;63.00
67188;DHT22;54117;53.532;49.426;2022-09-20T06:09:11;19.70;62.30
67188;DHT22;54117;53.532;49.426;2022-09-20T06:12:18;19.60;62.40
67188;DHT22;54117;53.532;49.426;2022-09-20T06:14:57;19.70;62.90
67188;DHT22;54117;53.532;49.426;2022-09-20T06:17:32;19.80;62.60
67188;DHT22;54117;53.532;49.426;2022-09-20T06:22:36;20.00;63.00
67188;DHT22;54117;53.532;49.426;2022-09-20T06:30:21;20.40;63.10
67188;DHT22;54117;53.532;49.426;2022-09-20T06:35:27;21.30;62.30
67188;DHT22;54117;53.532;49.426;2022-09-20T06:40:56;22.00;61.40
67188;DHT22;54117;53.532;49.426;2022-09-20T06:43:41;22.30;61.70
67188;DHT22;54117;53.532;49.426;2022-09-20T06:46:07;22.50;60.70
67188;DHT22;54117;53.532;49.426;2022-09-20T06:48:35;22.80;59.90
67188;DHT22;54117;53.532;49.426;2022-09-20T06:51:06;23.00;58.60
67188;DHT22;54117;53.532;49.426;2022-09-20T06:53:36;23.00;58.20
67188;DHT22;54117;53.532;49.426;2022-09-20T06:56:07;23.10;57.70
67188;DHT22;54117;53.532;49.426;2022-09-20T06:58:34;23.10;57.50
67188;DHT22;54117;53.532;49.426;2022-09-20T07:01:00;23.30;56.90
67188;DHT22;54117;53.532;49.426;2022-09-20T07:03:26;23.60;55.70
67188;DHT22;54117;53.532;49.426;2022-09-20T07:05:55;23.60;55.60
67188;DHT22;54117;53.532;49.426;2022-09-20T07:08:22;23.40;56.30
67188;DHT22;54117;53.532;49.426;2022-09-20T07:10:51;23.30;57.30
67188;DHT22;54117;53.532;49.426;2022-09-20T07:13:17;23.40;56.50
67188;DHT22;54117;53.532;49.426;2022-09-20T07:15:45;23.60;56.10
67188;DHT22;54117;53.532;49.426;2022-09-20T07:18:14;23.70;53.90
67188;DHT22;54117;53.532;49.426;2022-09-20T07:20:40;23.80;52.20
67188;DHT22;54117;53.532;49.426;2022-09-20T07:23:06;24.00;52.20
67188;DHT22;54117;53.532;49.426;2022-09-20T07:25:33;24.50;50.70
67188;DHT22;54117;53.532;49.426;2022-09-20T07:28:00;24.90;48.70
67188;DHT22;54117;53.532;49.426;2022-09-20T07:30:26;25.10;47.60
67188;DHT22;54117;53.532;49.426;2022-09-20T07:32:55;25.00;47.80
67188;DHT22;54117;53.532;49.426;2022-09-20T07:35:23;24.70;47.60
67188;DHT22;54117;53.532;49.426;2022-09-20T07:37:56;24.60;48.30
67188;DHT22;54117;53.532;49.426;2022-09-20T07:40:22;24.50;48.70
67188;DHT22;54117;53.532;49.426;2022-09-20T07:42:49;24.30;49.30
67188;DHT22;54117;53.532;49.426;2022-09-20T07:45:15;24.20;48.90
67188;DHT22;54117;53.532;49.426;2022-09-20T07:47:41;23.90;49.30
67188;DHT22;54117;53.532;49.426;2022-09-20T07:50:12;23.70;50.20
67188;DHT22;54117;53.532;49.426;2022-09-20T07:52:42;23.60;50.20
67188;DHT22;54117;53.532;49.426;2022-09-20T07:55:08;23.60;48.80
67188;DHT22;54117;53.532;49.426;2022-09-20T07:57:36;23.70;48.50
67188;DHT22;54117;53.532;49.426;2022-09-20T08:00:20;23.70;48.00
67188;DHT22;54117;53.532;49.426;2022-09-20T08:02:47;23.70;47.90
67188;DHT22;54117;53.532;49.426;2022-09-20T08:05:13;23.70;47.60
67188;DHT22;54117;53.532;49.426;2022-09-20T08:07:39;23.60;48.30
67188;DHT22;54117;53.532;49.426;2022-09-20T08:10:05;23.50;49.60
67188;DHT22;54117;53.532;49.426;2022-09-20T08:12:35;23.40;49.40
67188;DHT22;54117;53.532;49.426;2022-09-20T08:15:04;23.40;48.60
67188;DHT22;54117;53.532;49.426;2022-09-20T08:17:31;23.40;49.60
67188;DHT22;54117;53.532;49.426;2022-09-20T08:19:57;23.40;50.10
67188;DHT22;54117;53.532;49.426;2022-09-20T08:22:26;23.40;49.40
67188;DHT22;54117;53.532;49.426;2022-09-20T08:24:53;23.40;48.90
67188;DHT22;54117;53.532;49.426;2022-09-20T08:27:19;23.40;49.50
67188;DHT22;54117;53.532;49.426;2022-09-20T08:29:48;23.30;49.20
67188;DHT22;54117;53.532;49.426;2022-09-20T08:32:14;23.10;48.70
67188;DHT22;54117;53.532;49.426;2022-09-20T08:34:41;23.20;48.90
67188;DHT22;54117;53.532;49.426;2022-09-20T08:37:09;23.10;49.20
67188;DHT22;54117;53.532;49.426;2022-09-20T08:39:39;23.10;48.60
67188;DHT22;54117;53.532;49.426;2022-09-20T08:42:30;22.90;49.10
67188;DHT22;54117;53.532;49.426;2022-09-20T08:45:04;22.70;49.30
67188;DHT22;54117;53.532;49.426;2022-09-20T08:47:35;22.50;49.70
67188;DHT22;54117;53.532;49.426;2022-09-20T08:50:07;22.30;50.30
67188;DHT22;54117;53.532;49.426;2022-09-20T08:52:39;22.20;52.00
67188;DHT22;54117;53.532;49.426;2022-09-20T08:55:19;22.30;50.90
67188;DHT22;54117;53.532;49.426;2022-09-20T08:57:49;22.40;50.70
67188;DHT22;54117;53.532;49.426;2022-09-20T09:00:18;22.60;50.00
67188;DHT22;54117;53.532;49.426;2022-09-20T09:02:45;22.80;49.30
67188;DHT22;54117;53.532;49.426;2022-09-20T09:05:48;22.90;49.70
67188;DHT22;54117;53.532;49.426;2022-09-20T09:08:29;22.90;49.70
67188;DHT22;54117;53.532;49.426;2022-09-20T09:11:12;22.90;49.40
67188;DHT22;54117;53.532;49.426;2022-09-20T09:14:11;22.80;49.70
67188;DHT22;54117;53.532;49.426;2022-09-20T09:16:56;22.70;49.90
67188;DHT22;54117;53.532;49.426;2022-09-20T09:19:31;22.80;50.40
67188;DHT22;54117;53.532;49.426;2022-09-20T09:22:03;22.80;50.10
67188;DHT22;54117;53.532;49.426;2022-09-20T09:24:33;22.90;50.40
67188;DHT22;54117;53.532;49.426;2022-09-20T09:27:15;22.90;50.10
67188;DHT22;54117;53.532;49.426;2022-09-20T09:32:22;22.90;50.00
67188;DHT22;54117;53.532;49.426;2022-09-20T09:34:49;22.90;51.50
67188;DHT22;54117;53.532;49.426;2022-09-20T09:37:29;22.90;52.30
67188;DHT22;54117;53.532;49.426;2022-09-20T09:40:13;23.00;52.30
67188;DHT22;54117;53.532;49.426;2022-09-20T09:43:14;23.00;52.00
67188;DHT22;54117;53.532;49.426;2022-09-20T09:45:44;23.10;52.60
67188;DHT22;54117;53.532;49.426;2022-09-20T09:48:26;23.10;52.40
67188;DHT22;54117;53.532;49.426;2022-09-20T09:51:32;23.10;52.50
67188;DHT22;54117;53.532;49.426;2022-09-20T09:53:59;23.00;52.80
67188;DHT22;54117;53.532;49.426;2022-09-20T09:56:44;23.00;54.00
67188;DHT22;54117;53.532;49.426;2022-09-20T10:04:31;22.80;54.30
67188;DHT22;54117;53.532;49.426;2022-09-20T10:07:13;22.90;55.00
67188;DHT22;54117;53.532;49.426;2022-09-20T10:10:24;22.90;54.30
67188;DHT22;54117;53.532;49.426;2022-09-20T10:23:56;23.20;53.30
67188;DHT22;54117;53.532;49.426;2022-09-20T10:26:42;23.20;53.10
67188;DHT22;54117;53.532;49.426;2022-09-20T10:31:53;23.10;54.50
67188;DHT22;54117;53.532;49.426;2022-09-20T10:40:09;22.40;55.70
67188;DHT22;54117;53.532;49.426;2022-09-20T10:45:46;21.70;63.30
67188;DHT22;54117;53.532;49.426;2022-09-20T10:48:31;21.10;67.70
67188;DHT22;54117;53.532;49.426;2022-09-20T10:56:42;20.10;76.50
67188;DHT22;54117;53.532;49.426;2022-09-20T11:05:01;19.40;85.90
67188;DHT22;54117;53.532;49.426;2022-09-20T11:13:32;19.40;90.40
67188;DHT22;54117;53.532;49.426;2022-09-20T11:16:11;19.40;90.20
67188;DHT22;54117;53.532;49.426;2022-09-20T11:21:25;19.30;90.40
67188;DHT22;54117;53.532;49.426;2022-09-20T11:26:58;19.10;90.80
67188;DHT22;54117;53.532;49.426;2022-09-20T11:29:37;19.00;90.70
67188;DHT22;54117;53.532;49.426;2022-09-20T11:32:13;18.90;90.50
67188;DHT22;54117;53.532;49.426;2022-09-20T11:37:16;18.70;90.60
67188;DHT22;54117;53.532;49.426;2022-09-20T11:39:47;18.70;90.50
67188;DHT22;54117;53.532;49.426;2022-09-20T11:42:22;18.70;89.80
67188;DHT22;54117;53.532;49.426;2022-09-20T11:44:51;18.70;89.00
67188;DHT22;54117;53.532;49.426;2022-09-20T11:47:43;18.80;88.10
67188;DHT22;54117;53.532;49.426;2022-09-20T11:50:36;18.80;87.70
67188;DHT22;54117;53.532;49.426;2022-09-20T11:53:31;18.80;86.10
67188;DHT22;54117;53.532;49.426;2022-09-20T11:56:18;18.90;85.90
67188;DHT22;54117;53.532;49.426;2022-09-20T11:58:50;19.00;86.30
67188;DHT22;54117;53.532;49.426;2022-09-20T12:01:38;19.20;85.30
67188;DHT22;54117;53.532;49.426;2022-09-20T12:06:45;19.50;84.10
67188;DHT22;54117;53.532;49.426;2022-09-20T12:09:36;19.70;83.80
67188;DHT22;54117;53.532;49.426;2022-09-20T12:12:47;19.70;83.10
67188;DHT22;54117;53.532;49.426;2022-09-20T12:15:23;19.80;82.80
67188;DHT22;54117;53.532;49.426;2022-09-20T12:28:53;19.90;81.40
67188;DHT22;54117;53.532;49.426;2022-09-20T12:39:24;19.90;82.90
67188;DHT22;54117;53.532;49.426;2022-09-20T12:44:59;20.00;83.20
67188;DHT22;54117;53.532;49.426;2022-09-20T12:47:35;20.10;83.30
67188;DHT22;54117;53.532;49.426;2022-09-20T12:50:12;20.10;82.90
67188;DHT22;54117;53.532;49.426;2022-09-20T12:52:58;20.10;82.50
67188;DHT22;54117;53.532;49.426;2022-09-20T12:56:04;20.20;83.10
67188;DHT22;54117;53.532;49.426;2022-09-20T12:58:50;20.20;82.10
67188;DHT22;54117;53.532;49.426;2022-09-20T13:03:46;20.10;80.80
67188;DHT22;54117;53.532;49.426;2022-09-20T13:09:06;20.10;79.80
67188;DHT22;54117;53.532;49.426;2022-09-20T13:11:48;20.10;80.40
67188;DHT22;54117;53.532;49.426;2022-09-20T13:14:27;20.00;81.00
67188;DHT22;54117;53.532;49.426;2022-09-20T13:17:05;19.90;80.60
67188;DHT22;54117;53.532;49.426;2022-09-20T13:19:32;20.00;81.50
67188;DHT22;54117;53.532;49.426;2022-09-20T13:22:25;20.10;81.40
67188;DHT22;54117;53.532;49.426;2022-09-20T13:25:05;20.30;79.60
67188;DHT22;54117;53.532;49.426;2022-09-20T13:27:39;20.60;78.00
67188;DHT22;54117;53.532;49.426;2022-09-20T13:30:26;20.80;75.90
67188;DHT22;54117;53.532;49.426;2022-09-20T13:33:20;20.90;74.90
67188;DHT22;54117;53.532;49.426;2022-09-20T13:35:50;21.00;73.70
67188;DHT22;54117;53.532;49.426;2022-09-20T13:38:19;20.90;73.10
67188;DHT22;54117;53.532;49.426;2022-09-20T13:41:07;20.90;73.60
67188;DHT22;54117;53.532;49.426;2022-09-20T13:49:19;20.60;74.20
67188;DHT22;54117;53.532;49.426;2022-09-20T13:51:40;20.50;73.40
67188;DHT22;54117;53.532;49.426;2022-09-20T13:54:29;20.50;73.60
67188;DHT22;54117;53.532;49.426;2022-09-20T13:57:01;20.30;73.40
67188;DHT22;54117;53.532;49.426;2022-09-20T13:59:32;20.20;73.30
67188;DHT22;54117;53.532;49.426;2022-09-20T14:02:00;20.10;73.20
67188;DHT22;54117;53.532;49.426;2022-09-20T14:04:28;20.10;73.20
67188;DHT22;54117;53.532;49.426;2022-09-20T14:06:59;20.00;73.50
67188;DHT22;54117;53.532;49.426;2022-09-20T14:09:33;19.90;74.20
67188;DHT22;54117;53.532;49.426;2022-09-20T14:12:03;19.90;74.00
67188;DHT22;54117;53.532;49.426;2022-09-20T14:14:30;19.80;74.00
67188;DHT22;54117;53.532;49.426;2022-09-20T14:17:02;19.80;74.40
67188;DHT22;54117;53.532;49.426;2022-09-20T14:19:32;19.70;74.70
67188;DHT22;54117;53.532;49.426;2022-09-20T14:22:03;19.60;75.30
67188;DHT22;54117;53.532;49.426;2022-09-20T14:24:32;19.60;75.80
67188;DHT22;54117;53.532;49.426;2022-09-20T14:27:15;19.50;76.30
67188;DHT22;54117;53.532;49.426;2022-09-20T14:29:44;19.40;76.00
67188;DHT22;54117;53.532;49.426;2022-09-20T14:32:23;19.30;76.00
67188;DHT22;54117;53.532;49.426;2022-09-20T14:37:35;19.10;76.60
67188;DHT22;54117;53.532;49.426;2022-09-20T14:40:39;19.00;76.90
67188;DHT22;54117;53.532;49.426;2022-09-20T14:43:06;18.90;77.20
67188;DHT22;54117;53.532;49.426;2022-09-20T14:45:54;18.80;78.00
67188;DHT22;54117;53.532;49.426;2022-09-20T14:53:37;18.70;79.40
67188;DHT22;54117;53.532;49.426;2022-09-20T14:58:30;18.60;80.30
67188;DHT22;54117;53.532;49.426;2022-09-20T15:03:43;18.50;80.60
67188;DHT22;54117;53.532;49.426;2022-09-20T15:06:11;18.50;81.00
67188;DHT22;54117;53.532;49.426;2022-09-20T15:08:38;18.50;81.90
67188;DHT22;54117;53.532;49.426;2022-09-20T15:11:05;18.50;82.00
67188;DHT22;54117;53.532;49.426;2022-09-20T15:13:31;18.50;81.70
67188;DHT22;54117;53.532;49.426;2022-09-20T15:15:58;18.50;81.50
67188;DHT22;54117;53.532;49.426;2022-09-20T15:18:26;18.40;81.70
67188;DHT22;54117;53.532;49.426;2022-09-20T15:20:53;18.40;82.10
67188;DHT22;54117;53.532;49.426;2022-09-20T15:23:20;18.40;82.60
67188;DHT22;54117;53.532;49.426;2022-09-20T15:25:51;18.40;82.90
67188;DHT22;54117;53.532;49.426;2022-09-20T15:28:18;18.40;83.10
67188;DHT22;54117;53.532;49.426;2022-09-20T15:30:47;18.40;83.10
67188;DHT22;54117;53.532;49.426;2022-09-20T15:33:16;18.30;83.20
67188;DHT22;54117;53.532;49.426;2022-09-20T15:35:44;18.30;83.40
67188;DHT22;54117;53.532;49.426;2022-09-20T15:38:11;18.30;83.80
67188;DHT22;54117;53.532;49.426;2022-09-20T15:40:42;18.40;84.10
67188;DHT22;54117;53.532;49.426;2022-09-20T15:43:12;18.30;83.90
67188;DHT22;54117;53.532;49.426;2022-09-20T15:46:15;18.30;84.10
67188;DHT22;54117;53.532;49.426;2022-09-20T15:48:42;18.20;83.70
67188;DHT22;54117;53.532;49.426;2022-09-20T15:51:12;18.20;84.20
67188;DHT22;54117;53.532;49.426;2022-09-20T15:53:42;18.20;84.20
67188;DHT22;54117;53.532;49.426;2022-09-20T15:56:15;18.20;84.40
67188;DHT22;54117;53.532;49.426;2022-09-20T15:58:50;18.20;84.90
67188;DHT22;54117;53.532;49.426;2022-09-20T16:01:31;18.10;85.10
67188;DHT22;54117;53.532;49.426;2022-09-20T16:03:58;18.20;85.00
67188;DHT22;54117;53.532;49.426;2022-09-20T16:06:25;18.10;85.50
67188;DHT22;54117;53.532;49.426;2022-09-20T16:08:54;18.10;85.80
67188;DHT22;54117;53.532;49.426;2022-09-20T16:11:21;18.10;85.90
67188;DHT22;54117;53.532;49.426;2022-09-20T16:14:00;18.10;86.00
67188;DHT22;54117;53.532;49.426;2022-09-20T16:16:29;18.10;86.70
67188;DHT22;54117;53.532;49.426;2022-09-20T16:18:55;18.10;86.40
67188;DHT22;54117;53.532;49.426;2022-09-20T16:21:42;18.10;86.50
67188;DHT22;54117;53.532;49.426;2022-09-20T16:24:09;18.10;86.90
67188;DHT22;54117;53.532;49.426;2022-09-20T16:26:38;18.10;87.30
67188;DHT22;54117;53.532;49.426;2022-09-20T16:29:08;18.10;87.50
67188;DHT22;54117;53.532;49.426;2022-09-20T16:31:49;18.10;87.40
67188;DHT22;54117;53.532;49.426;2022-09-20T16:34:23;18.10;87.60
67188;DHT22;54117;53.532;49.426;2022-09-20T16:36:56;18.10;87.90
67188;DHT22;54117;53.532;49.426;2022-09-20T16:39:27;18.10;88.00
67188;DHT22;54117;53.532;49.426;2022-09-20T16:41:58;18.00;88.20
67188;DHT22;54117;53.532;49.426;2022-09-20T16:44:36;18.00;88.70
67188;DHT22;54117;53.532;49.426;2022-09-20T16:47:04;17.90;89.10
67188;DHT22;54117;53.532;49.426;2022-09-20T16:49:34;18.00;89.60
67188;DHT22;54117;53.532;49.426;2022-09-20T16:52:03;17.90;89.90
67188;DHT22;54117;53.532;49.426;2022-09-20T16:54:30;17.90;90.10
67188;DHT22;54117;53.532;49.426;2022-09-20T16:56:56;17.90;90.20
67188;DHT22;54117;53.532;49.426;2022-09-20T16:59:27;17.90;90.20
67188;DHT22;54117;53.532;49.426;2022-09-20T17:01:54;17.80;90.40
67188;DHT22;54117;53.532;49.426;2022-09-20T17:04:23;17.80;90.60
67188;DHT22;54117;53.532;49.426;2022-09-20T17:06:50;17.80;90.80
67188;DHT22;54117;53.532;49.426;2022-09-20T17:09:17;17.80;90.90
67188;DHT22;54117;53.532;49.426;2022-09-20T17:11:45;17.80;91.10
67188;DHT22;54117;53.532;49.426;2022-09-20T17:14:15;17.80;91.30
67188;DHT22;54117;53.532;49.426;2022-09-20T17:16:43;17.80;91.30
67188;DHT22;54117;53.532;49.426;2022-09-20T17:19:20;17.80;91.40
67188;DHT22;54117;53.532;49.426;2022-09-20T17:21:48;17.70;91.30
67188;DHT22;54117;53.532;49.426;2022-09-20T17:24:19;17.70;91.50
67188;DHT22;54117;53.532;49.426;2022-09-20T17:26:47;17.60;91.60
67188;DHT22;54117;53.532;49.426;2022-09-20T17:29:20;17.60;91.80
67188;DHT22;54117;53.532;49.426;2022-09-20T17:31:49;17.60;92.10
67188;DHT22;54117;53.532;49.426;2022-09-20T17:34:16;17.50;92.30
67188;DHT22;54117;53.532;49.426;2022-09-20T17:36:46;17.50;92.50
67188;DHT22;54117;53.532;49.426;2022-09-20T17:39:14;17.40;92.60
67188;DHT22;54117;53.532;49.426;2022-09-20T17:41:45;17.40;92.70
67188;DHT22;54117;53.532;49.426;2022-09-20T17:44:15;17.40;92.80
67188;DHT22;54117;53.532;49.426;2022-09-20T17:46:44;17.50;92.90
67188;DHT22;54117;53.532;49.426;2022-09-20T17:49:13;17.40;93.00
67188;DHT22;54117;53.532;49.426;2022-09-20T17:51:47;17.40;93.10
67188;DHT22;54117;53.532;49.426;2022-09-20T17:54:14;17.40;93.20
67188;DHT22;54117;53.532;49.426;2022-09-20T17:56:42;17.40;93.20
67188;DHT22;54117;53.532;49.426;2022-09-20T17:59:12;17.40;93.40
67188;DHT22;54117;53.532;49.426;2022-09-20T18:01:43;17.30;93.40
67188;DHT22;54117;53.532;49.426;2022-09-20T18:04:13;17.30;93.50
67188;DHT22;54117;53.532;49.426;2022-09-20T18:06:53;17.30;93.50
67188;DHT22;54117;53.532;49.426;2022-09-20T18:09:32;17.30;93.60
67188;DHT22;54117;53.532;49.426;2022-09-20T18:11:58;17.20;93.70
67188;DHT22;54117;53.532;49.426;2022-09-20T18:14:51;17.20;93.80
67188;DHT22;54117;53.532;49.426;2022-09-20T18:17:25;17.10;93.90
67188;DHT22;54117;53.532;49.426;2022-09-20T18:19:54;17.00;94.00
67188;DHT22;54117;53.532;49.426;2022-09-20T18:22:25;17.00;94.20
67188;DHT22;54117;53.532;49.426;2022-09-20T18:24:55;16.90;94.30
67188;DHT22;54117;53.532;49.426;2022-09-20T18:27:22;16.90;94.50
67188;DHT22;54117;53.532;49.426;2022-09-20T18:29:48;16.90;94.50
67188;DHT22;54117;53.532;49.426;2022-09-20T18:32:15;16.90;94.80
67188;DHT22;54117;53.532;49.426;2022-09-20T18:34:47;16.90;94.60
67188;DHT22;54117;53.532;49.426;2022-09-20T18:37:16;17.00;94.60
67188;DHT22;54117;53.532;49.426;2022-09-20T18:39:42;17.00;94.50
67188;DHT22;54117;53.532;49.426;2022-09-20T18:42:08;17.00;94.50
67188;DHT22;54117;53.532;49.426;2022-09-20T18:44:35;17.00;94.50
67188;DHT22;54117;53.532;49.426;2022-09-20T18:47:02;17.00;94.60
67188;DHT22;54117;53.532;49.426;2022-09-20T18:49:32;17.00;94.60
67188;DHT22;54117;53.532;49.426;2022-09-20T18:51:59;17.00;94.60
67188;DHT22;54117;53.532;49.426;2022-09-20T18:54:43;17.00;94.60
67188;DHT22;54117;53.532;49.426;2022-09-20T18:57:29;16.90;94.60
67188;DHT22;54117;53.532;49.426;2022-09-20T18:59:57;16.90;94.50
67188;DHT22;54117;53.532;49.426;2022-09-20T19:02:28;16.90;94.60
67188;DHT22;54117;53.532;49.426;2022-09-20T19:07:51;16.80;94.60
67188;DHT22;54117;53.532;49.426;2022-09-20T19:16:16;16.60;95.00
67188;DHT22;54117;53.532;49.426;2022-09-20T19:18:48;16.60;95.00
67188;DHT22;54117;53.532;49.426;2022-09-20T19:26:55;16.50;95.40
67188;DHT22;54117;53.532;49.426;2022-09-20T19:29:25;16.60;95.60
67188;DHT22;54117;53.532;49.426;2022-09-20T19:31:57;16.60;95.60
67188;DHT22;54117;53.532;49.426;2022-09-20T19:34:28;16.60;95.50
67188;DHT22;54117;53.532;49.426;2022-09-20T19:42:23;16.70;95.50
67188;DHT22;54117;53.532;49.426;2022-09-20T19:50:34;16.80;95.30
67188;DHT22;54117;53.532;49.426;2022-09-20T19:53:03;16.90;95.30
67188;DHT22;54117;53.532;49.426;2022-09-20T19:55:34;16.90;95.30
67188;DHT22;54117;53.532;49.426;2022-09-20T19:58:01;17.00;95.30
67188;DHT22;54117;53.532;49.426;2022-09-20T20:00:27;17.00;95.30
67188;DHT22;54117;53.532;49.426;2022-09-20T20:02:58;17.00;95.40
67188;DHT22;54117;53.532;49.426;2022-09-20T20:05:25;17.00;95.30
67188;DHT22;54117;53.532;49.426;2022-09-20T20:11:20;17.10;95.20
67188;DHT22;54117;53.532;49.426;2022-09-20T20:28:16;17.00;95.20
67188;DHT22;54117;53.532;49.426;2022-09-20T20:30:43;17.10;95.30
67188;DHT22;54117;53.532;49.426;2022-09-20T20:33:15;17.00;95.40
67188;DHT22;54117;53.532;49.426;2022-09-20T20:35:51;17.00;95.60
67188;DHT22;54117;53.532;49.426;2022-09-20T20:38:18;17.00;95.20
67188;DHT22;54117;53.532;49.426;2022-09-20T20:40:47;17.00;95.10
67188;DHT22;54117;53.532;49.426;2022-09-20T20:43:13;17.00;95.10
67188;DHT22;54117;53.532;49.426;2022-09-20T20:45:48;16.80;95.60
67188;DHT22;54117;53.532;49.426;2022-09-20T20:48:14;16.70;95.90
67188;DHT22;54117;53.532;49.426;2022-09-20T20:50:41;16.70;96.20
67188;DHT22;54117;53.532;49.426;2022-09-20T20:53:07;16.60;96.50
67188;DHT22;54117;53.532;49.426;2022-09-20T20:55:33;16.60;96.70
67188;DHT22;54117;53.532;49.426;2022-09-20T20:57:59;16.60;96.90
67188;DHT22;54117;53.532;49.426;2022-09-20T21:00:26;16.50;97.00
67188;DHT22;54117;53.532;49.426;2022-09-20T21:03:00;16.50;97.10
67188;DHT22;54117;53.532;49.426;2022-09-20T21:05:27;16.50;97.20
67188;DHT22;54117;53.532;49.426;2022-09-20T21:07:53;16.50;97.30
67188;DHT22;54117;53.532;49.426;2022-09-20T21:10:23;16.60;97.50
67188;DHT22;54117;53.532;49.426;2022-09-20T21:12:52;16.60;97.50
67188;DHT22;54117;53.532;49.426;2022-09-20T21:15:19;16.60;97.40
67188;DHT22;54117;53.532;49.426;2022-09-20T21:17:50;16.60;97.40
67188;DHT22;54117;53.532;49.426;2022-09-20T21:20:19;16.60;97.30
67188;DHT22;54117;53.532;49.426;2022-09-20T21:22:46;16.60;97.10
67188;DHT22;54117;53.532;49.426;2022-09-20T21:25:13;16.50;97.10
67188;DHT22;54117;53.532;49.426;2022-09-20T21:27:39;16.50;97.30
67188;DHT22;54117;53.532;49.426;2022-09-20T21:30:06;16.50;97.40
67188;DHT22;54117;53.532;49.426;2022-09-20T21:32:32;16.50;97.40